This is the latest recevied weather packets stored in our database for station/object K1ABC. If no packets are shown the sender has not sent any weather packets the latest 10 day(s).
| Time | Temp. | Humidity | Pressure | Rain* | Wind** | Luminosity | Snow |
|---|---|---|---|---|---|---|---|
| 1777931635 | 21.67° C | 31% | 1005.4 hPa | 0 mm | - | - | - |
| 1777931154 | 22.22° C | 32% | 1005.2 hPa | 0 mm | - | - | - |
| 1777930667 | 22.22° C | 30% | 1005.3 hPa | 0 mm | - | - | - |
| 1777928866 | 23.33° C | 29% | 1005.4 hPa | 0 mm | - | - | - |
| 1777928616 | 23.33° C | 30% | 1005.3 hPa | 0 mm | - | - | - |
| 1777924715 | 23.33° C | 29% | 1005.3 hPa | 0 mm | - | - | - |
| 1777924082 | 23.33° C | 28% | 1005.4 hPa | 0 mm | - | - | - |
| 1777922816 | 22.78° C | 30% | 1005.4 hPa | 0 mm | - | - | - |
| 1777921667 | 22.22° C | 30% | 1005.6 hPa | 0 mm | - | - | - |
| 1777920897 | 21.67° C | 28% | 1005.7 hPa | 0 mm | - | - | - |
| 1777919998 | 21.67° C | 29% | 1005.8 hPa | 0 mm | - | - | - |
| 1777918728 | 22.78° C | 27% | 1006 hPa | 0 mm | - | - | - |
| 1777918607 | 22.78° C | 29% | 1005.9 hPa | 0 mm | - | - | - |
| 1777918229 | 22.22° C | 29% | 1006 hPa | 0 mm | - | - | - |
| 1777917601 | 22.22° C | 29% | 1005.9 hPa | 0 mm | - | - | - |
| 1777917237 | 22.22° C | 28% | 1006.1 hPa | 0 mm | - | - | - |
| 1777917110 | 22.22° C | 30% | 1006 hPa | 0 mm | - | - | - |
| 1777916859 | 22.22° C | 29% | 1006.1 hPa | 0 mm | - | - | - |
| 1777916417 | 22.22° C | 29% | 1006.2 hPa | 0 mm | - | - | - |
| 1777915502 | 21.67° C | 30% | 1006.2 hPa | 0 mm | - | - | - |
| 1777915247 | 21.67° C | 30% | 1006.2 hPa | 0 mm | - | - | - |
| 1777914487 | 21.11° C | 32% | 1006.3 hPa | 0 mm | - | - | - |
| 1777913438 | 21.11° C | 30% | 1006.5 hPa | 0 mm | - | - | - |
| 1777913111 | 21.11° C | 33% | 1006.5 hPa | 0 mm | - | - | - |
| 1777912860 | 21.11° C | 30% | 1006.6 hPa | 0 mm | - | - | - |
* Rain latest hour (hover to see other rain measurements)
** Current wind speed in m/s (hover to see current wind gust speed)